Terminal Aerodrome Forecast
Issued by NWS

Home | Current Version | Previous Version | Text Only | Print | Product List | Glossary Off
Versions: 1 2 3 4 5 6 7 8 9 10 11 12 13 14 15 16

000
FTUS42 KMHX 230554 CCA
TAFISO
TAF COR
KISO 230554Z 2306/2406 VRB04KT P6SM BKN007
     FM230900 22005KT P6SM SCT007 BKN015
     FM231300 22012G20KT P6SM SCT040
     FM240100 20011KT P6SM SCT250
      AMD LTD TO CLD VIS AND WIND=

USA.gov is the U.S. government's official web portal to all federal, state and local government web resources and services.